KBEH/BEH METAR and TAF weather

Enter ICAO airport designator
Station Type Date Time Source
KBEH METAR 2022/01/29 01:53 UTC NOAA

KBEH 290153Z AUTO 10003KT 10SM OVC037 M12/M17 A3031 RMK AO2 SLP277 T11221167


Station Type Date Time Source
KBEH Decoded METAR 2022/01/29 01:53 UTC NOAA

SOUTHWEST MICHIGAN REGIONAL, MI, United States (KBEH) 42-08N 86-25W 191M
Jan 28, 2022 - 08:53 PM EST / 2022.01.29 0153 UTC
Wind: from the E (100 degrees) at 3 MPH (3 KT):0
Visibility: 10 mile(s):0
Sky conditions: overcast
Temperature: 10.0 F (-12.2 C)
Dew Point: 1.9 F (-16.7 C)
Relative Humidity: 69%
Pressure (altimeter): 30.31 in. Hg (1026 hPa)
ob: KBEH 290153Z AUTO 10003KT 10SM OVC037 M12/M17 A3031 RMK AO2 SLP277 T11221167
cycle: 2

Station Type Date Time Source
KBEH TAF UTC NOAA

Error!

Example: see airport list